sensor_id;sensor_type;location;lat;lon;timestamp;pressure;altitude;pressure_sealevel;temperature;humidity
46942;BME280;32676;52.630;4.896;2023-05-11T00:01:04;99854.88;;;11.70;84.35
46942;BME280;32676;52.630;4.896;2023-05-11T00:03:30;99868.88;;;11.71;84.39
46942;BME280;32676;52.630;4.896;2023-05-11T00:05:57;99866.25;;;11.71;84.01
46942;BME280;32676;52.630;4.896;2023-05-11T00:08:23;99856.06;;;11.65;84.02
46942;BME280;32676;52.630;4.896;2023-05-11T00:10:49;99860.22;;;11.69;84.39
46942;BME280;32676;52.630;4.896;2023-05-11T00:13:16;99863.63;;;11.71;84.45
46942;BME280;32676;52.630;4.896;2023-05-11T00:15:43;99873.22;;;11.72;84.25
46942;BME280;32676;52.630;4.896;2023-05-11T00:18:10;99864.56;;;11.70;84.55
46942;BME280;32676;52.630;4.896;2023-05-11T00:20:36;99858.53;;;11.68;84.50
46942;BME280;32676;52.630;4.896;2023-05-11T00:23:02;99878.50;;;11.72;84.46
46942;BME280;32676;52.630;4.896;2023-05-11T00:25:29;99863.00;;;11.66;84.46
46942;BME280;32676;52.630;4.896;2023-05-11T00:27:56;99855.13;;;11.66;84.69
46942;BME280;32676;52.630;4.896;2023-05-11T00:30:22;99846.47;;;11.64;84.57
46942;BME280;32676;52.630;4.896;2023-05-11T00:32:50;99832.78;;;11.57;84.81
46942;BME280;32676;52.630;4.896;2023-05-11T00:35:16;99839.59;;;11.61;84.92
46942;BME280;32676;52.630;4.896;2023-05-11T00:37:42;99859.63;;;11.64;84.80
46942;BME280;32676;52.630;4.896;2023-05-11T00:40:09;99845.69;;;11.62;85.01
46942;BME280;32676;52.630;4.896;2023-05-11T00:42:35;99837.03;;;11.60;84.99
46942;BME280;32676;52.630;4.896;2023-05-11T00:45:02;99843.22;;;11.59;84.98
46942;BME280;32676;52.630;4.896;2023-05-11T00:47:28;99836.19;;;11.59;84.93
46942;BME280;32676;52.630;4.896;2023-05-11T00:49:56;99835.31;;;11.59;85.13
46942;BME280;32676;52.630;4.896;2023-05-11T00:52:22;99851.03;;;11.60;85.19
46942;BME280;32676;52.630;4.896;2023-05-11T00:54:48;99850.97;;;11.62;85.32
46942;BME280;32676;52.630;4.896;2023-05-11T00:57:15;99844.94;;;11.60;85.18
46942;BME280;32676;52.630;4.896;2023-05-11T00:59:42;99847.56;;;11.60;85.36
46942;BME280;32676;52.630;4.896;2023-05-11T01:02:08;99855.38;;;11.61;85.24
46942;BME280;32676;52.630;4.896;2023-05-11T01:04:34;99868.47;;;11.63;85.40
46942;BME280;32676;52.630;4.896;2023-05-11T01:07:05;99873.66;;;11.64;85.41
46942;BME280;32676;52.630;4.896;2023-05-11T01:09:37;99893.69;;;11.67;85.13
46942;BME280;32676;52.630;4.896;2023-05-11T01:12:08;99904.97;;;11.69;85.11
46942;BME280;32676;52.630;4.896;2023-05-11T01:14:40;99899.72;;;11.69;84.91
46942;BME280;32676;52.630;4.896;2023-05-11T01:17:12;99904.06;;;11.70;84.93
46942;BME280;32676;52.630;4.896;2023-05-11T01:19:43;99898.78;;;11.70;84.73
46942;BME280;32676;52.630;4.896;2023-05-11T01:22:18;99939.66;;;11.77;84.61
46942;BME280;32676;52.630;4.896;2023-05-11T01:24:50;99943.06;;;11.79;84.45
46942;BME280;32676;52.630;4.896;2023-05-11T01:27:30;99948.31;;;11.79;84.53
46942;BME280;32676;52.630;4.896;2023-05-11T01:30:18;99950.94;;;11.79;84.25
46942;BME280;32676;52.630;4.896;2023-05-11T01:32:49;99965.66;;;11.83;84.04
46942;BME280;32676;52.630;4.896;2023-05-11T01:35:17;99970.91;;;11.83;83.81
46942;BME280;32676;52.630;4.896;2023-05-11T01:37:45;99969.19;;;11.82;83.81
46942;BME280;32676;52.630;4.896;2023-05-11T01:40:14;99945.75;;;11.78;83.93
46942;BME280;32676;52.630;4.896;2023-05-11T01:42:42;99918.91;;;11.71;84.03
46942;BME280;32676;52.630;4.896;2023-05-11T01:45:09;99914.66;;;11.68;84.32
46942;BME280;32676;52.630;4.896;2023-05-11T01:47:38;99889.50;;;11.63;84.30
46942;BME280;32676;52.630;4.896;2023-05-11T01:50:05;99879.13;;;11.60;84.74
46942;BME280;32676;52.630;4.896;2023-05-11T01:52:33;99884.41;;;11.60;84.76
46942;BME280;32676;52.630;4.896;2023-05-11T01:55:01;99882.69;;;11.59;84.98
46942;BME280;32676;52.630;4.896;2023-05-11T01:57:29;99874.91;;;11.57;85.08
46942;BME280;32676;52.630;4.896;2023-05-11T01:59:56;99884.41;;;11.60;85.28
46942;BME280;32676;52.630;4.896;2023-05-11T02:02:23;99891.38;;;11.61;85.32
46942;BME280;32676;52.630;4.896;2023-05-11T02:04:51;99905.28;;;11.63;85.40
46942;BME280;32676;52.630;4.896;2023-05-11T02:07:18;99894.78;;;11.63;85.49
46942;BME280;32676;52.630;4.896;2023-05-11T02:09:46;99917.50;;;11.64;85.64
46942;BME280;32676;52.630;4.896;2023-05-11T02:12:13;99920.06;;;11.65;85.70
46942;BME280;32676;52.630;4.896;2023-05-11T02:14:40;99926.16;;;11.66;85.87
46942;BME280;32676;52.630;4.896;2023-05-11T02:17:08;99927.03;;;11.66;86.20
46942;BME280;32676;52.630;4.896;2023-05-11T02:19:35;99920.91;;;11.66;85.82
46942;BME280;32676;52.630;4.896;2023-05-11T02:22:03;99933.16;;;11.67;85.91
46942;BME280;32676;52.630;4.896;2023-05-11T02:24:30;99950.47;;;11.71;85.74
46942;BME280;32676;52.630;4.896;2023-05-11T02:26:58;99957.44;;;11.72;85.48
46942;BME280;32676;52.630;4.896;2023-05-11T02:29:24;99937.56;;;11.66;85.79
46942;BME280;32676;52.630;4.896;2023-05-11T02:31:51;99945.22;;;11.71;85.50
46942;BME280;32676;52.630;4.896;2023-05-11T02:34:21;99931.44;;;11.66;85.75
46942;BME280;32676;52.630;4.896;2023-05-11T02:36:48;99935.00;;;11.65;85.96
46942;BME280;32676;52.630;4.896;2023-05-11T02:39:18;99937.66;;;11.65;86.05
46942;BME280;32676;52.630;4.896;2023-05-11T02:41:45;99932.38;;;11.65;86.12
46942;BME280;32676;52.630;4.896;2023-05-11T02:44:15;99935.94;;;11.64;85.82
46942;BME280;32676;52.630;4.896;2023-05-11T02:46:42;99936.81;;;11.64;86.27
46942;BME280;32676;52.630;4.896;2023-05-11T02:49:11;99939.44;;;11.64;86.44
46942;BME280;32676;52.630;4.896;2023-05-11T02:51:42;99940.28;;;11.65;86.45
46942;BME280;32676;52.630;4.896;2023-05-11T02:54:09;99944.59;;;11.66;86.58
46942;BME280;32676;52.630;4.896;2023-05-11T02:56:38;99945.53;;;11.65;86.83
46942;BME280;32676;52.630;4.896;2023-05-11T02:59:06;99953.34;;;11.66;86.89
46942;BME280;32676;52.630;4.896;2023-05-11T03:01:32;99964.59;;;11.70;86.79
46942;BME280;32676;52.630;4.896;2023-05-11T03:03:58;99973.25;;;11.72;86.52
46942;BME280;32676;52.630;4.896;2023-05-11T03:06:25;99973.25;;;11.72;86.32
46942;BME280;32676;52.630;4.896;2023-05-11T03:08:51;99974.16;;;11.71;86.25
46942;BME280;32676;52.630;4.896;2023-05-11T03:11:17;99985.47;;;11.73;86.38
46942;BME280;32676;52.630;4.896;2023-05-11T03:13:46;99966.25;;;11.71;86.14
46942;BME280;32676;52.630;4.896;2023-05-11T03:16:14;99958.69;;;11.65;86.30
46942;BME280;32676;52.630;4.896;2023-05-11T03:18:41;99947.41;;;11.63;86.50
46942;BME280;32676;52.630;4.896;2023-05-11T03:21:08;99938.75;;;11.61;87.01
46942;BME280;32676;52.630;4.896;2023-05-11T03:23:34;99934.38;;;11.60;87.03
46942;BME280;32676;52.630;4.896;2023-05-11T03:26:01;99937.03;;;11.60;87.03
46942;BME280;32676;52.630;4.896;2023-05-11T03:28:29;99944.00;;;11.61;86.98
46942;BME280;32676;52.630;4.896;2023-05-11T03:30:56;99944.00;;;11.61;87.20
46942;BME280;32676;52.630;4.896;2023-05-11T03:33:23;99954.34;;;11.64;87.24
46942;BME280;32676;52.630;4.896;2023-05-11T03:35:49;99957.94;;;11.63;87.35
46942;BME280;32676;52.630;4.896;2023-05-11T03:38:16;99961.31;;;11.65;87.14
46942;BME280;32676;52.630;4.896;2023-05-11T03:40:43;99966.59;;;11.65;87.11
46942;BME280;32676;52.630;4.896;2023-05-11T03:43:11;99970.00;;;11.67;87.47
46942;BME280;32676;52.630;4.896;2023-05-11T03:45:40;99976.09;;;11.67;87.39
46942;BME280;32676;52.630;4.896;2023-05-11T03:48:09;99983.91;;;11.69;87.54
46942;BME280;32676;52.630;4.896;2023-05-11T03:50:37;99989.19;;;11.69;87.66
46942;BME280;32676;52.630;4.896;2023-05-11T03:53:03;99996.16;;;11.70;87.41
46942;BME280;32676;52.630;4.896;2023-05-11T03:55:30;99998.72;;;11.71;87.19
46942;BME280;32676;52.630;4.896;2023-05-11T03:57:57;100013.50;;;11.74;86.92
46942;BME280;32676;52.630;4.896;2023-05-11T04:00:23;100016.97;;;11.75;86.89
46942;BME280;32676;52.630;4.896;2023-05-11T04:02:49;100018.75;;;11.74;86.55
46942;BME280;32676;52.630;4.896;2023-05-11T04:05:18;100022.16;;;11.76;86.63
46942;BME280;32676;52.630;4.896;2023-05-11T04:07:44;100003.06;;;11.55;86.91
46942;BME280;32676;52.630;4.896;2023-05-11T04:10:11;100044.75;;;11.80;87.37
46942;BME280;32676;52.630;4.896;2023-05-11T04:12:37;100051.75;;;11.81;86.98
46942;BME280;32676;52.630;4.896;2023-05-11T04:15:04;100074.34;;;11.85;87.02
46942;BME280;32676;52.630;4.896;2023-05-11T04:17:30;100084.72;;;11.88;86.95
46942;BME280;32676;52.630;4.896;2023-05-11T04:19:56;100075.19;;;11.86;86.66
46942;BME280;32676;52.630;4.896;2023-05-11T04:22:24;100078.69;;;11.86;86.61
46942;BME280;32676;52.630;4.896;2023-05-11T04:24:50;100098.69;;;11.90;86.23
46942;BME280;32676;52.630;4.896;2023-05-11T04:27:17;100117.00;;;11.94;86.10
46942;BME280;32676;52.630;4.896;2023-05-11T04:29:43;100122.19;;;11.95;85.96
46942;BME280;32676;52.630;4.896;2023-05-11T04:32:09;100129.97;;;11.97;86.14
46942;BME280;32676;52.630;4.896;2023-05-11T04:34:36;100121.31;;;11.95;85.71
46942;BME280;32676;52.630;4.896;2023-05-11T04:37:02;100114.34;;;11.94;86.05
46942;BME280;32676;52.630;4.896;2023-05-11T04:39:32;100102.22;;;11.89;85.94
46942;BME280;32676;52.630;4.896;2023-05-11T04:41:59;100083.19;;;11.84;86.20
46942;BME280;32676;52.630;4.896;2023-05-11T04:44:25;100082.38;;;11.82;86.16
46942;BME280;32676;52.630;4.896;2023-05-11T04:46:52;100069.22;;;11.82;86.53
46942;BME280;32676;52.630;4.896;2023-05-11T04:49:19;100079.75;;;11.82;86.32
46942;BME280;32676;52.630;4.896;2023-05-11T04:51:45;100084.03;;;11.85;86.56
46942;BME280;32676;52.630;4.896;2023-05-11T04:54:12;100075.34;;;11.83;86.31
46942;BME280;32676;52.630;4.896;2023-05-11T04:56:40;100070.16;;;11.81;86.51
46942;BME280;32676;52.630;4.896;2023-05-11T04:59:06;100065.88;;;11.79;86.71
46942;BME280;32676;52.630;4.896;2023-05-11T05:01:32;100060.72;;;11.77;86.99
46942;BME280;32676;52.630;4.896;2023-05-11T05:03:58;100056.38;;;11.76;86.64
46942;BME280;32676;52.630;4.896;2023-05-11T05:06:25;100052.06;;;11.75;86.95
46942;BME280;32676;52.630;4.896;2023-05-11T05:08:51;100052.06;;;11.75;87.11
46942;BME280;32676;52.630;4.896;2023-05-11T05:11:17;100059.00;;;11.76;87.35
46942;BME280;32676;52.630;4.896;2023-05-11T05:13:45;100057.31;;;11.75;87.34
46942;BME280;32676;52.630;4.896;2023-05-11T05:16:11;100057.31;;;11.75;87.29
46942;BME280;32676;52.630;4.896;2023-05-11T05:18:38;100060.72;;;11.77;87.22
46942;BME280;32676;52.630;4.896;2023-05-11T05:21:04;100066.91;;;11.76;87.16
46942;BME280;32676;52.630;4.896;2023-05-11T05:23:31;100075.56;;;11.78;87.37
46942;BME280;32676;52.630;4.896;2023-05-11T05:25:57;100091.28;;;11.80;87.04
46942;BME280;32676;52.630;4.896;2023-05-11T05:28:23;100099.13;;;11.81;87.05
46942;BME280;32676;52.630;4.896;2023-05-11T05:30:51;100092.13;;;11.80;87.17
46942;BME280;32676;52.630;4.896;2023-05-11T05:33:17;100092.13;;;11.80;86.76
46942;BME280;32676;52.630;4.896;2023-05-11T05:35:43;100094.78;;;11.80;86.89
46942;BME280;32676;52.630;4.896;2023-05-11T05:38:10;100106.94;;;11.83;86.80
46942;BME280;32676;52.630;4.896;2023-05-11T05:40:37;100132.13;;;11.88;87.00
46942;BME280;32676;52.630;4.896;2023-05-11T05:43:03;100151.22;;;11.94;86.76
46942;BME280;32676;52.630;4.896;2023-05-11T05:45:30;100159.88;;;11.96;87.22
46942;BME280;32676;52.630;4.896;2023-05-11T05:47:57;100163.28;;;11.98;87.14
46942;BME280;32676;52.630;4.896;2023-05-11T05:50:24;100188.59;;;12.00;87.47
46942;BME280;32676;52.630;4.896;2023-05-11T05:52:51;100192.91;;;12.03;87.07
46942;BME280;32676;52.630;4.896;2023-05-11T05:55:17;100215.56;;;12.05;87.08
46942;BME280;32676;52.630;4.896;2023-05-11T05:57:43;100216.41;;;12.06;86.43
46942;BME280;32676;52.630;4.896;2023-05-11T06:00:10;100205.28;;;12.01;86.63
46942;BME280;32676;52.630;4.896;2023-05-11T06:02:37;100217.38;;;12.05;86.44
46942;BME280;32676;52.630;4.896;2023-05-11T06:05:05;100202.66;;;12.01;86.58
46942;BME280;32676;52.630;4.896;2023-05-11T06:07:32;100185.28;;;11.97;86.08
46942;BME280;32676;52.630;4.896;2023-05-11T06:09:58;100200.00;;;12.01;86.14
46942;BME280;32676;52.630;4.896;2023-05-11T06:12:25;100220.78;;;12.07;86.12
46942;BME280;32676;52.630;4.896;2023-05-11T06:14:51;100245.97;;;12.13;85.80
46942;BME280;32676;52.630;4.896;2023-05-11T06:17:17;100268.50;;;12.18;85.95
46942;BME280;32676;52.630;4.896;2023-05-11T06:19:43;100288.50;;;12.22;86.15
46942;BME280;32676;52.630;4.896;2023-05-11T06:22:11;100305.88;;;12.26;86.20
46942;BME280;32676;52.630;4.896;2023-05-11T06:24:37;100351.16;;;12.35;86.68
46942;BME280;32676;52.630;4.896;2023-05-11T06:27:04;100416.31;;;12.50;86.53
46942;BME280;32676;52.630;4.896;2023-05-11T06:29:30;100497.16;;;12.68;87.00
46942;BME280;32676;52.630;4.896;2023-05-11T06:31:56;100555.38;;;12.83;86.91
46942;BME280;32676;52.630;4.896;2023-05-11T06:34:23;100604.94;;;12.95;86.75
46942;BME280;32676;52.630;4.896;2023-05-11T06:36:49;100693.78;;;13.14;85.98
46942;BME280;32676;52.630;4.896;2023-05-11T06:39:17;100779.13;;;13.33;85.19
46942;BME280;32676;52.630;4.896;2023-05-11T06:41:43;100854.06;;;13.50;84.81
46942;BME280;32676;52.630;4.896;2023-05-11T06:44:09;100939.47;;;13.69;83.88
46942;BME280;32676;52.630;4.896;2023-05-11T06:46:37;100977.78;;;13.79;83.60
46942;BME280;32676;52.630;4.896;2023-05-11T06:49:03;101011.78;;;13.87;83.43
46942;BME280;32676;52.630;4.896;2023-05-11T06:51:29;101057.97;;;13.99;83.03
46942;BME280;32676;52.630;4.896;2023-05-11T06:53:56;101076.34;;;14.00;82.83
46942;BME280;32676;52.630;4.896;2023-05-11T06:56:23;101077.25;;;14.01;82.71
46942;BME280;32676;52.630;4.896;2023-05-11T06:58:50;101102.47;;;14.08;82.52
46942;BME280;32676;52.630;4.896;2023-05-11T07:01:16;101128.69;;;14.13;82.09
46942;BME280;32676;52.630;4.896;2023-05-11T07:03:42;101141.72;;;14.17;81.79
46942;BME280;32676;52.630;4.896;2023-05-11T07:06:08;101185.47;;;14.25;81.62
46942;BME280;32676;52.630;4.896;2023-05-11T07:08:35;101203.78;;;14.29;81.05
46942;BME280;32676;52.630;4.896;2023-05-11T07:11:01;101231.63;;;14.38;80.74
46942;BME280;32676;52.630;4.896;2023-05-11T07:13:29;101264.03;;;14.43;80.85
46942;BME280;32676;52.630;4.896;2023-05-11T07:15:55;101295.47;;;14.49;80.56
46942;BME280;32676;52.630;4.896;2023-05-11T07:18:21;101316.41;;;14.55;79.88
46942;BME280;32676;52.630;4.896;2023-05-11T07:20:48;101364.53;;;14.65;79.90
46942;BME280;32676;52.630;4.896;2023-05-11T07:23:14;101475.56;;;14.89;79.47
46942;BME280;32676;52.630;4.896;2023-05-11T07:25:41;101536.69;;;15.05;79.46
46942;BME280;32676;52.630;4.896;2023-05-11T07:28:07;101531.41;;;15.05;78.47
46942;BME280;32676;52.630;4.896;2023-05-11T07:30:34;101530.53;;;15.04;77.46
46942;BME280;32676;52.630;4.896;2023-05-11T07:33:01;101545.44;;;15.07;77.01
46942;BME280;32676;52.630;4.896;2023-05-11T07:35:28;101597.91;;;15.19;77.32
46942;BME280;32676;52.630;4.896;2023-05-11T07:37:54;101669.63;;;15.35;77.64
46942;BME280;32676;52.630;4.896;2023-05-11T07:40:21;101718.66;;;15.47;76.71
46942;BME280;32676;52.630;4.896;2023-05-11T07:42:47;101793.97;;;15.63;76.27
46942;BME280;32676;52.630;4.896;2023-05-11T07:45:13;101828.06;;;15.72;75.28
46942;BME280;32676;52.630;4.896;2023-05-11T07:47:41;101898.16;;;15.89;74.59
46942;BME280;32676;52.630;4.896;2023-05-11T07:50:09;101977.94;;;16.06;74.40
46942;BME280;32676;52.630;4.896;2023-05-11T07:52:35;102037.53;;;16.20;74.28
46942;BME280;32676;52.630;4.896;2023-05-11T07:55:01;102055.06;;;16.24;73.50
46942;BME280;32676;52.630;4.896;2023-05-11T07:57:28;102120.84;;;16.39;72.91
46942;BME280;32676;52.630;4.896;2023-05-11T07:59:54;102140.97;;;16.45;71.82
46942;BME280;32676;52.630;4.896;2023-05-11T08:02:20;102153.25;;;16.47;70.86
46942;BME280;32676;52.630;4.896;2023-05-11T08:04:48;102133.06;;;16.43;71.06
46942;BME280;32676;52.630;4.896;2023-05-11T08:07:14;102093.59;;;16.34;71.33
46942;BME280;32676;52.630;4.896;2023-05-11T08:09:41;102050.63;;;16.24;71.14
46942;BME280;32676;52.630;4.896;2023-05-11T08:12:07;102004.09;;;16.16;71.06
46942;BME280;32676;52.630;4.896;2023-05-11T08:14:34;102007.66;;;16.15;71.15
46942;BME280;32676;52.630;4.896;2023-05-11T08:17:01;102051.50;;;16.25;71.10
46942;BME280;32676;52.630;4.896;2023-05-11T08:19:27;102061.97;;;16.28;71.74
46942;BME280;32676;52.630;4.896;2023-05-11T08:21:55;102059.31;;;16.28;71.93
46942;BME280;32676;52.630;4.896;2023-05-11T08:24:21;102033.03;;;16.22;71.03
46942;BME280;32676;52.630;4.896;2023-05-11T08:26:48;102027.72;;;16.22;70.97
46942;BME280;32676;52.630;4.896;2023-05-11T08:29:14;102044.44;;;16.24;70.79
46942;BME280;32676;52.630;4.896;2023-05-11T08:31:40;102118.94;;;16.43;70.43
46942;BME280;32676;52.630;4.896;2023-05-11T08:34:07;102172.44;;;16.56;70.17
46942;BME280;32676;52.630;4.896;2023-05-11T08:36:33;102193.53;;;16.59;69.82
46942;BME280;32676;52.630;4.896;2023-05-11T08:39:01;102230.31;;;16.69;68.49
46942;BME280;32676;52.630;4.896;2023-05-11T08:41:27;102287.44;;;16.81;67.70
46942;BME280;32676;52.630;4.896;2023-05-11T08:43:54;102326.97;;;16.91;66.95
46942;BME280;32676;52.630;4.896;2023-05-11T08:46:22;102418.38;;;17.10;67.80
46942;BME280;32676;52.630;4.896;2023-05-11T08:48:50;102460.41;;;17.22;67.58
46942;BME280;32676;52.630;4.896;2023-05-11T08:51:17;102470.94;;;17.25;67.31
46942;BME280;32676;52.630;4.896;2023-05-11T08:53:43;102507.03;;;17.33;67.02
46942;BME280;32676;52.630;4.896;2023-05-11T08:56:11;102575.59;;;17.48;66.22
46942;BME280;32676;52.630;4.896;2023-05-11T08:58:38;102595.84;;;17.52;66.03
46942;BME280;32676;52.630;4.896;2023-05-11T09:01:05;102590.53;;;17.52;66.51
46942;BME280;32676;52.630;4.896;2023-05-11T09:03:33;102608.13;;;17.56;67.21
46942;BME280;32676;52.630;4.896;2023-05-11T09:06:00;102606.38;;;17.55;67.14
46942;BME280;32676;52.630;4.896;2023-05-11T09:08:28;102629.16;;;17.62;67.50
46942;BME280;32676;52.630;4.896;2023-05-11T09:10:55;102643.22;;;17.66;67.14
46942;BME280;32676;52.630;4.896;2023-05-11T09:13:24;102637.91;;;17.66;67.45
46942;BME280;32676;52.630;4.896;2023-05-11T09:15:51;102641.47;;;17.67;67.54
46942;BME280;32676;52.630;4.896;2023-05-11T09:18:17;102681.03;;;17.76;66.59
46942;BME280;32676;52.630;4.896;2023-05-11T09:20:44;102732.94;;;17.89;66.86
46942;BME280;32676;52.630;4.896;2023-05-11T09:23:12;102795.44;;;18.02;66.43
46942;BME280;32676;52.630;4.896;2023-05-11T09:25:40;102817.47;;;18.08;65.33
46942;BME280;32676;52.630;4.896;2023-05-11T09:28:10;102853.56;;;18.16;64.73
46942;BME280;32676;52.630;4.896;2023-05-11T09:30:37;102967.16;;;18.42;64.05
46942;BME280;32676;52.630;4.896;2023-05-11T09:33:04;103053.56;;;18.62;63.71
46942;BME280;32676;52.630;4.896;2023-05-11T09:35:32;103037.66;;;18.59;62.50
46942;BME280;32676;52.630;4.896;2023-05-11T09:37:59;103011.19;;;18.54;62.18
46942;BME280;32676;52.630;4.896;2023-05-11T09:40:26;102986.44;;;18.51;62.75
46942;BME280;32676;52.630;4.896;2023-05-11T09:42:52;102963.50;;;18.47;63.26
46942;BME280;32676;52.630;4.896;2023-05-11T09:48:05;102844.53;;;18.20;64.86
46942;BME280;32676;52.630;4.896;2023-05-11T09:50:32;102819.88;;;18.15;65.17
46942;BME280;32676;52.630;4.896;2023-05-11T09:52:59;102776.72;;;18.06;65.47
46942;BME280;32676;52.630;4.896;2023-05-11T09:55:25;102731.84;;;17.95;66.05
46942;BME280;32676;52.630;4.896;2023-05-11T09:57:52;102702.78;;;17.90;66.24
46942;BME280;32676;52.630;4.896;2023-05-11T10:00:19;102694.78;;;17.90;66.47
46942;BME280;32676;52.630;4.896;2023-05-11T10:02:46;102689.50;;;17.89;67.18
46942;BME280;32676;52.630;4.896;2023-05-11T10:05:25;102638.44;;;17.77;67.23
46942;BME280;32676;52.630;4.896;2023-05-11T10:07:55;102605.00;;;17.70;67.68
46942;BME280;32676;52.630;4.896;2023-05-11T10:10:21;102563.66;;;17.61;67.32
46942;BME280;32676;52.630;4.896;2023-05-11T10:12:48;102569.78;;;17.63;67.71
46942;BME280;32676;52.630;4.896;2023-05-11T10:15:14;102570.63;;;17.64;69.58
46942;BME280;32676;52.630;4.896;2023-05-11T10:17:41;102582.97;;;17.67;71.17
46942;BME280;32676;52.630;4.896;2023-05-11T10:20:08;102582.09;;;17.66;70.95
46942;BME280;32676;52.630;4.896;2023-05-11T10:22:36;102570.59;;;17.65;70.26
46942;BME280;32676;52.630;4.896;2023-05-11T10:25:03;102584.69;;;17.68;70.57
46942;BME280;32676;52.630;4.896;2023-05-11T10:27:30;102561.81;;;17.63;69.99
46942;BME280;32676;52.630;4.896;2023-05-11T10:29:57;102567.97;;;17.64;69.64
46942;BME280;32676;52.630;4.896;2023-05-11T10:32:24;102561.81;;;17.63;69.63
46942;BME280;32676;52.630;4.896;2023-05-11T10:34:50;102542.47;;;17.58;69.10
46942;BME280;32676;52.630;4.896;2023-05-11T10:37:17;102505.47;;;17.52;68.41
46942;BME280;32676;52.630;4.896;2023-05-11T10:39:46;102487.03;;;17.48;68.11
46942;BME280;32676;52.630;4.896;2023-05-11T10:42:16;102452.69;;;17.41;68.11
46942;BME280;32676;52.630;4.896;2023-05-11T10:44:52;102420.16;;;17.35;68.22
46942;BME280;32676;52.630;4.896;2023-05-11T10:47:25;102399.13;;;17.29;68.48
46942;BME280;32676;52.630;4.896;2023-05-11T10:50:01;102369.22;;;17.22;69.80
46942;BME280;32676;52.630;4.896;2023-05-11T10:52:37;102326.06;;;17.15;70.85
46942;BME280;32676;52.630;4.896;2023-05-11T10:55:12;102305.91;;;17.10;71.71
46942;BME280;32676;52.630;4.896;2023-05-11T10:57:48;102264.66;;;17.01;70.98
46942;BME280;32676;52.630;4.896;2023-05-11T11:00:24;102224.22;;;16.93;70.42
46942;BME280;32676;52.630;4.896;2023-05-11T11:03:08;102210.22;;;16.87;71.85
46942;BME280;32676;52.630;4.896;2023-05-11T11:05:34;102166.34;;;16.77;73.34
46942;BME280;32676;52.630;4.896;2023-05-11T11:08:02;102127.69;;;16.70;73.39
46942;BME280;32676;52.630;4.896;2023-05-11T11:10:30;102101.34;;;16.64;74.76
46942;BME280;32676;52.630;4.896;2023-05-11T11:13:01;102066.28;;;16.56;75.23
46942;BME280;32676;52.630;4.896;2023-05-11T11:18:17;102034.66;;;16.49;75.99
46942;BME280;32676;52.630;4.896;2023-05-11T11:20:44;102022.44;;;16.45;77.19
46942;BME280;32676;52.630;4.896;2023-05-11T11:23:19;101992.56;;;16.40;78.25
46942;BME280;32676;52.630;4.896;2023-05-11T11:26:07;101963.66;;;16.33;78.20
46942;BME280;32676;52.630;4.896;2023-05-11T11:31:22;101968.97;;;16.33;77.94
46942;BME280;32676;52.630;4.896;2023-05-11T11:33:49;101979.44;;;16.37;78.47
46942;BME280;32676;52.630;4.896;2023-05-11T11:36:15;102016.31;;;16.43;78.48
46942;BME280;32676;52.630;4.896;2023-05-11T11:38:55;102028.50;;;16.49;79.35
46942;BME280;32676;52.630;4.896;2023-05-11T11:41:28;102055.78;;;16.53;78.11
46942;BME280;32676;52.630;4.896;2023-05-11T11:43:54;102075.03;;;16.58;78.13
46942;BME280;32676;52.630;4.896;2023-05-11T11:46:24;102115.41;;;16.66;78.25
46942;BME280;32676;52.630;4.896;2023-05-11T11:48:51;102126.78;;;16.69;77.64
46942;BME280;32676;52.630;4.896;2023-05-11T11:51:31;102136.44;;;16.72;77.41
46942;BME280;32676;52.630;4.896;2023-05-11T11:53:58;102143.47;;;16.73;78.44
46942;BME280;32676;52.630;4.896;2023-05-11T11:56:38;102134.66;;;16.73;78.78
46942;BME280;32676;52.630;4.896;2023-05-11T11:59:05;102118.88;;;16.68;78.44
46942;BME280;32676;52.630;4.896;2023-05-11T12:01:35;102134.69;;;16.71;77.97
46942;BME280;32676;52.630;4.896;2023-05-11T12:06:49;102145.22;;;16.74;76.73
46942;BME280;32676;52.630;4.896;2023-05-11T12:09:20;102139.97;;;16.73;75.77
46942;BME280;32676;52.630;4.896;2023-05-11T12:11:48;102161.03;;;16.77;75.91
46942;BME280;32676;52.630;4.896;2023-05-11T12:14:15;102168.91;;;16.79;75.58
46942;BME280;32676;52.630;4.896;2023-05-11T12:16:41;102164.50;;;16.79;76.19
46942;BME280;32676;52.630;4.896;2023-05-11T12:19:07;102193.53;;;16.84;76.17
46942;BME280;32676;52.630;4.896;2023-05-11T12:21:34;102223.34;;;16.92;76.40
46942;BME280;32676;52.630;4.896;2023-05-11T12:24:00;102250.53;;;16.99;77.01
46942;BME280;32676;52.630;4.896;2023-05-11T12:26:27;102261.91;;;17.02;76.43
46942;BME280;32676;52.630;4.896;2023-05-11T12:29:06;102269.81;;;17.04;75.43
46942;BME280;32676;52.630;4.896;2023-05-11T12:31:36;102246.97;;;17.00;75.55
46942;BME280;32676;52.630;4.896;2023-05-11T12:34:02;102240.00;;;16.97;75.47
46942;BME280;32676;52.630;4.896;2023-05-11T12:36:29;102225.06;;;16.93;74.59
46942;BME280;32676;52.630;4.896;2023-05-11T12:38:56;102218.91;;;16.93;74.58
46942;BME280;32676;52.630;4.896;2023-05-11T12:41:22;102245.22;;;16.99;74.34
46942;BME280;32676;52.630;4.896;2023-05-11T12:43:49;102266.25;;;17.05;74.69
46942;BME280;32676;52.630;4.896;2023-05-11T12:46:17;102305.81;;;17.13;75.15
46942;BME280;32676;52.630;4.896;2023-05-11T12:48:44;102340.06;;;17.20;75.68
46942;BME280;32676;52.630;4.896;2023-05-11T12:51:10;102346.19;;;17.22;74.50
46942;BME280;32676;52.630;4.896;2023-05-11T12:53:37;102374.31;;;17.28;73.18
46942;BME280;32676;52.630;4.896;2023-05-11T12:56:04;102369.00;;;17.28;73.05
46942;BME280;32676;52.630;4.896;2023-05-11T12:58:37;102353.19;;;17.25;72.91
46942;BME280;32676;52.630;4.896;2023-05-11T13:01:04;102351.44;;;17.24;73.03
46942;BME280;32676;52.630;4.896;2023-05-11T13:03:35;102367.28;;;17.27;73.04
46942;BME280;32676;52.630;4.896;2023-05-11T13:06:05;102368.16;;;17.27;73.83